Terminal Aerodrome Forecast
Issued by NWS

Home | Current Version | Previous Version | Text Only | Print | Product List | Glossary On
Versions: 1 2 3 4 5 6 7 8 9 10 11 12 13 14 15 16 17 18 19 20
027
FTUS46 KHNX 022323
TAFFAT
TAF
KFAT 022323Z 0300/0324 15004KT 5SM HZ SCT025
     FM030600 10002KT 2SM BR SKC
      TEMPO 0313/0317 1/2SM FG OVC003
     FM031900 14003KT 4SM HZ SKC=

USA.gov is the U.S. government's official web portal to all federal, state and local government web resources and services.